Time;durP1;ratioP1;P1;durP2;ratioP2;P2;SDS_P1;SDS_P2;PMS_P1;PMS_P2;Temp;Humidity;BMP_temperature;BMP_pressure;BME280_temperature;BME280_humidity;BME280_pressure;Samples;Min_cycle;Max_cycle;Signal;HPM_P1;HPM_P2
2022/05/10 00:06:42;;;;;;;2.15;1.10;;;;;;;;;;20987459;28;20048;-81
2022/05/10 00:16:51;;;;;;;1.15;0.90;;;;;;;;;;21000798;28;20057;-82
2022/05/10 00:26:56;;;;;;;1.30;1.10;;;;;;;;;;20968091;28;20052;-82
2022/05/10 00:37:03;;;;;;;2.42;1.35;;;;;;;;;;20991472;28;20044;-82
2022/05/10 00:47:34;;;;;;;1.98;1.15;;;;;;;;;;20985588;28;20064;-84
2022/05/10 00:57:43;;;;;;;2.38;1.00;;;;;;;;;;20979263;28;20098;-83
2022/05/10 01:07:52;;;;;;;2.10;1.02;;;;;;;;;;21002492;28;20056;-83
2022/05/10 01:18:04;;;;;;;1.85;1.25;;;;;;;;;;20997119;28;20049;-82
2022/05/10 01:28:21;;;;;;;3.50;1.13;;;;;;;;;;20996814;28;20091;-84
2022/05/10 01:38:26;;;;;;;2.22;1.45;;;;;;;;;;21016839;28;20555;-84
2022/05/10 01:48:34;;;;;;;2.45;1.30;;;;;;;;;;20972458;28;20060;-84
2022/05/10 01:58:41;;;;;;;3.38;1.38;;;;;;;;;;21000362;28;20044;-84
2022/05/10 02:09:01;;;;;;;3.17;1.55;;;;;;;;;;20976533;28;20044;-83
2022/05/10 02:19:09;;;;;;;1.63;1.10;;;;;;;;;;20992886;28;20142;-85
2022/05/10 02:29:21;;;;;;;2.95;1.63;;;;;;;;;;20972399;28;20056;-84
2022/05/10 02:39:23;;;;;;;1.92;1.10;;;;;;;;;;20991269;28;20450;-84
2022/05/10 02:49:24;;;;;;;2.28;1.20;;;;;;;;;;22873675;22;20416;-83
2022/05/10 02:59:30;;;;;;;2.17;1.23;;;;;;;;;;20995906;28;20484;-83
2022/05/10 03:09:33;;;;;;;1.92;1.20;;;;;;;;;;21000746;28;20086;-83
2022/05/10 03:19:37;;;;;;;2.00;1.05;;;;;;;;;;21000971;28;20036;-83
2022/05/10 03:29:42;;;;;;;2.45;1.92;;;;;;;;;;20997027;28;20508;-83
2022/05/10 03:39:51;;;;;;;4.65;1.30;;;;;;;;;;21001975;28;20072;-85
2022/05/10 03:49:54;;;;;;;2.35;1.50;;;;;;;;;;20997785;28;20057;-84
2022/05/10 03:59:58;;;;;;;1.17;1.07;;;;;;;;;;20993759;28;20041;-84
2022/05/10 04:10:02;;;;;;;2.63;1.35;;;;;;;;;;21006827;28;20048;-84
2022/05/10 04:20:06;;;;;;;2.28;1.30;;;;;;;;;;21007031;28;20078;-84
2022/05/10 04:30:10;;;;;;;1.43;1.30;;;;;;;;;;21005325;28;20048;-84
2022/05/10 04:50:34;;;;;;;1.63;1.45;;;;;;;;;;20994492;28;20064;-84
2022/05/10 05:00:36;;;;;;;2.28;1.48;;;;;;;;;;21010543;28;20074;-83
2022/05/10 05:10:38;;;;;;;2.90;1.58;;;;;;;;;;21008201;28;20055;-83
2022/05/10 05:20:41;;;;;;;1.95;1.30;;;;;;;;;;21001246;28;20055;-83
2022/05/10 05:30:43;;;;;;;3.58;1.60;;;;;;;;;;21002064;28;20083;-83
2022/05/10 05:40:45;;;;;;;1.92;1.60;;;;;;;;;;20979529;28;20052;-83
2022/05/10 05:50:49;;;;;;;3.35;1.83;;;;;;;;;;20993942;28;20064;-83
2022/05/10 06:00:54;;;;;;;2.08;1.75;;;;;;;;;;20992591;28;20439;-83
2022/05/10 06:10:57;;;;;;;2.15;1.45;;;;;;;;;;20991879;28;20064;-83
2022/05/10 06:21:00;;;;;;;1.50;1.40;;;;;;;;;;20954866;28;20125;-87
2022/05/10 06:31:05;;;;;;;1.88;1.35;;;;;;;;;;20988909;28;20487;-84
2022/05/10 06:41:07;;;;;;;1.60;1.40;;;;;;;;;;20989751;28;20049;-84
2022/05/10 06:51:16;;;;;;;2.75;1.63;;;;;;;;;;20972019;28;20314;-88
2022/05/10 07:01:21;;;;;;;1.58;1.30;;;;;;;;;;20988580;28;20037;-83
2022/05/10 07:11:23;;;;;;;2.28;1.45;;;;;;;;;;20988630;28;20493;-84
2022/05/10 07:21:24;;;;;;;3.35;1.70;;;;;;;;;;20988274;28;20048;-82
2022/05/10 07:45:54;;;;;;;6.10;3.17;;;;;;;17.35;66.84;101186.13;21215267;28;20122;-83
2022/05/10 07:55:55;;;;;;;8.98;3.03;;;;;;;18.46;65.23;101296.44;21229526;28;20122;-77
2022/05/10 08:05:59;;;;;;;5.88;2.72;;;;;;;18.40;64.25;101219.66;21210442;28;20078;-74
2022/05/10 08:16:01;;;;;;;6.55;2.88;;;;;;;19.07;63.32;101295.72;21209283;28;20054;-71
2022/05/10 08:26:04;;;;;;;7.07;3.40;;;;;;;19.32;62.44;101298.09;21224988;28;20515;-75
2022/05/10 08:40:28;;;;;;;4.72;2.30;;;;;;;-148.93;100.00;62180.91;21146637;27;20427;-70
2022/05/10 08:50:31;;;;;;;4.65;2.50;;;;;;;-148.93;100.00;62180.91;21140958;28;20048;-72
2022/05/10 09:00:50;;;;;;;5.15;2.50;;;;;;;-148.93;100.00;62180.91;21090618;28;20527;-72
2022/05/10 09:11:06;;;;;;;3.80;2.30;;;;;;;-148.93;100.00;62180.91;21059453;28;20062;-69
2022/05/10 09:21:11;;;;;;;4.88;2.45;;;;;;;-148.93;100.00;62180.91;21058639;28;20033;-72
2022/05/10 09:42:09;;;;;;;5.78;2.92;;;;;;;-148.93;100.00;62180.91;21177987;28;19924;-71
2022/05/10 09:52:22;;;;;;;4.57;2.40;;;;;;;-148.93;100.00;62180.91;21150338;28;20060;-71
2022/05/10 10:02:30;;;;;;;4.15;2.47;;;;;;;-148.93;100.00;62180.91;21129572;28;20097;-72
2022/05/10 10:12:44;;;;;;;2.80;2.53;;;;;;;-148.93;100.00;62180.91;21105528;28;20071;-72
2022/05/10 10:22:48;;;;;;;4.13;2.67;;;;;;;-148.93;100.00;62180.91;21081870;28;20055;-69
2022/05/10 10:32:56;;;;;;;5.03;2.50;;;;;;;-148.93;100.00;62180.91;21063166;28;20052;-69
2022/05/10 10:43:17;;;;;;;3.95;2.70;;;;;;;-148.93;100.00;62180.91;21062799;28;20052;-68
2022/05/10 10:53:20;;;;;;;5.20;2.67;;;;;;;-148.93;100.00;62180.91;21057576;28;20135;-69
2022/05/10 11:03:31;;;;;;;4.68;2.60;;;;;;;-148.93;100.00;62180.91;21160890;27;20043;-70
2022/05/10 11:13:59;;;;;;;3.58;2.55;;;;;;;-148.93;100.00;62180.91;21210050;27;20043;-69
2022/05/10 11:24:10;;;;;;;2.85;2.38;;;;;;;-148.93;100.00;62180.91;21126949;27;20143;-70
2022/05/10 11:34:33;;;;;;;5.50;2.60;;;;;;;-148.93;100.00;62180.91;21183820;27;20420;-72
2022/05/10 11:45:06;;;;;;;2.50;2.30;;;;;;;-148.93;100.00;62180.91;21244847;27;20058;-69
2022/05/10 11:55:18;;;;;;;4.38;2.40;;;;;;;-148.93;100.00;62180.91;21182731;27;20431;-71
2022/05/10 12:05:32;;;;;;;2.83;2.50;;;;;;;-148.93;100.00;62180.91;21054236;28;20395;-71
2022/05/10 12:26:02;;;;;;;2.43;2.20;;;;;;;-148.93;100.00;62180.91;21057861;28;20412;-72
2022/05/10 12:53:48;;;;;;;5.97;3.70;;;;;;;20.47;59.22;101095.75;20808745;27;47368;-63
2022/05/10 13:04:06;;;;;;;5.45;3.20;;;;;;;20.21;59.37;101093.69;20749641;28;20046;-63
2022/05/10 13:14:08;;;;;;;6.65;3.90;;;;;;;20.00;60.07;101098.31;20747624;28;20136;-62
2022/05/10 13:24:12;;;;;;;6.65;3.22;;;;;;;19.88;59.92;101093.16;20727268;28;20371;-63
2022/05/10 13:34:17;;;;;;;4.25;3.08;;;;;;;19.77;60.88;101078.84;20730045;28;20217;-63
2022/05/10 13:44:21;;;;;;;2.92;2.47;;;;;;;19.70;60.71;101078.59;20744596;28;20080;-63
2022/05/10 13:54:38;;;;;;;3.30;2.70;;;;;;;19.70;60.58;101080.41;20731459;28;20069;-63
2022/05/10 14:04:46;;;;;;;4.30;2.92;;;;;;;19.67;60.79;101073.47;20634215;28;20054;-63
2022/05/10 15:02:35;;;;;;;3.47;2.08;;;;;;;19.44;56.76;101091.78;20735169;28;20069;-62
2022/05/10 15:22:57;;;;;;;5.20;2.10;;;;;;;19.34;56.90;101083.69;20740186;28;20123;-62
2022/05/10 15:32:58;;;;;;;4.78;1.70;;;;;;;19.29;56.49;101096.78;20760317;28;20136;-61
2022/05/10 15:43:00;;;;;;;2.42;1.65;;;;;;;19.27;56.20;101098.75;20748789;28;20402;-62
2022/05/10 15:53:02;;;;;;;3.55;2.05;;;;;;;19.26;55.91;101099.75;20729894;28;20124;-60
2022/05/10 16:03:05;;;;;;;1.85;1.63;;;;;;;19.28;55.37;101106.69;20728217;28;20525;-62
2022/05/10 16:13:07;;;;;;;3.05;1.67;;;;;;;19.35;56.86;101090.81;20696567;28;20409;-64
2022/05/10 16:23:09;;;;;;;3.05;1.40;;;;;;;19.48;59.12;101103.16;20735910;28;20545;-62
2022/05/10 16:33:10;;;;;;;3.53;1.40;;;;;;;19.55;63.13;101099.75;20731270;28;20402;-63
2022/05/10 16:43:16;;;;;;;3.90;1.55;;;;;;;19.55;63.00;101107.00;20743525;28;20483;-60
2022/05/10 16:53:17;;;;;;;4.28;1.38;;;;;;;19.54;62.23;101094.50;20721159;28;20049;-61
2022/05/10 17:03:19;;;;;;;9.13;1.45;;;;;;;19.52;61.43;101091.09;20760190;28;20058;-62
2022/05/10 17:13:21;;;;;;;8.93;1.60;;;;;;;19.46;61.58;101070.94;20734787;28;20049;-62
2022/05/10 17:23:22;;;;;;;8.90;1.88;;;;;;;19.50;61.47;101069.63;20721033;28;20053;-63
2022/05/10 17:33:23;;;;;;;8.90;1.83;;;;;;;19.46;61.72;101076.31;20737614;28;20108;-63
2022/05/10 17:43:25;;;;;;;2.60;1.25;;;;;;;19.31;60.78;101056.13;20749278;28;20164;-61
2022/05/10 17:53:29;;;;;;;1.90;1.13;;;;;;;19.48;60.14;101078.88;20746299;28;20041;-61
2022/05/10 18:03:36;;;;;;;5.65;1.38;;;;;;;19.50;59.48;101083.16;20751849;28;20050;-64
2022/05/10 18:13:38;;;;;;;5.57;1.63;;;;;;;19.52;59.31;101080.28;20720008;28;20046;-61
2022/05/10 18:23:42;;;;;;;4.15;1.50;;;;;;;19.51;58.79;101084.84;20747183;28;20073;-61
2022/05/10 18:33:45;;;;;;;5.30;1.60;;;;;;;19.37;58.67;101056.41;20789610;28;20115;-62
2022/05/10 18:43:46;;;;;;;2.30;1.10;;;;;;;19.50;58.51;101076.88;20780764;28;20049;-62
2022/05/10 18:53:48;;;;;;;3.78;1.17;;;;;;;19.50;58.18;101082.28;20799012;28;20083;-62
2022/05/10 19:03:53;;;;;;;3.75;1.08;;;;;;;19.47;57.69;101101.47;20792879;28;20045;-61
2022/05/10 19:13:55;;;;;;;4.05;1.58;;;;;;;19.45;57.29;101074.63;20774362;28;20055;-61
2022/05/10 19:23:56;;;;;;;2.63;1.30;;;;;;;19.41;57.23;101079.44;20807040;28;20077;-62
2022/05/10 19:33:58;;;;;;;7.15;1.58;;;;;;;19.35;60.04;101096.22;20776444;28;20163;-61
2022/05/10 19:44:01;;;;;;;6.55;1.75;;;;;;;19.24;63.57;101102.59;20821991;28;20144;-63
2022/05/10 19:54:03;;;;;;;7.15;2.38;;;;;;;19.22;63.29;101098.31;20790288;28;20048;-62
2022/05/10 20:14:25;;;;;;;4.45;2.50;;;;;;;19.19;64.76;101102.16;20797466;28;20407;-61
2022/05/10 20:24:27;;;;;;;8.05;2.13;;;;;;;19.16;64.21;101099.75;20779186;28;20073;-61
2022/05/10 20:34:28;;;;;;;4.22;1.90;;;;;;;19.12;64.76;101107.25;20787714;28;20049;-62
2022/05/10 20:44:32;;;;;;;6.82;2.20;;;;;;;19.05;64.57;101100.72;20824680;28;20041;-61
2022/05/10 20:54:33;;;;;;;4.35;1.73;;;;;;;19.05;63.95;101105.25;20830176;28;20132;-62
2022/05/10 21:04:34;;;;;;;2.00;1.60;;;;;;;19.01;62.32;101093.06;20806141;28;20088;-61
2022/05/10 21:14:36;;;;;;;3.65;1.52;;;;;;;18.97;61.61;101070.84;20843135;28;20128;-62
2022/05/10 21:24:56;;;;;;;2.20;1.45;;;;;;;18.94;61.48;101055.78;20832501;28;20037;-61
2022/05/10 21:35:17;;;;;;;2.92;1.33;;;;;;;18.90;61.78;101073.22;20847146;28;20049;-62
2022/05/10 21:45:20;;;;;;;2.72;1.45;;;;;;;18.86;61.64;101077.19;20834089;28;20663;-61
2022/05/10 21:55:23;;;;;;;3.03;1.40;;;;;;;18.82;61.25;101067.69;20806659;28;20049;-61
2022/05/10 22:05:24;;;;;;;5.72;1.50;;;;;;;18.79;61.20;101041.88;20828920;28;20073;-61
2022/05/10 22:15:28;;;;;;;2.40;1.45;;;;;;;18.78;61.46;101028.50;20830890;28;20107;-61
2022/05/10 22:25:30;;;;;;;2.93;1.40;;;;;;;18.76;61.55;101050.19;20808008;28;20053;-61
2022/05/10 22:35:31;;;;;;;2.25;1.40;;;;;;;18.74;61.57;101035.16;20811128;28;20048;-62
2022/05/10 22:45:33;;;;;;;3.13;1.50;;;;;;;18.73;61.51;101009.19;20836152;28;20049;-62
2022/05/10 22:55:34;;;;;;;4.25;1.40;;;;;;;18.68;61.80;101005.06;20820631;28;20069;-61
2022/05/10 23:05:35;;;;;;;2.70;1.40;;;;;;;18.67;61.35;100989.00;20839603;28;20045;-62
2022/05/10 23:15:37;;;;;;;3.45;1.70;;;;;;;18.66;61.99;100998.97;20824265;28;20061;-62
2022/05/10 23:25:40;;;;;;;1.65;1.27;;;;;;;18.56;61.18;101003.50;20820062;28;20068;-61
2022/05/10 23:35:42;;;;;;;1.33;1.20;;;;;;;18.62;61.43;101002.94;20814517;28;20072;-61
2022/05/10 23:45:43;;;;;;;3.55;1.30;;;;;;;18.60;61.27;100983.34;20816353;28;20521;-62
2022/05/10 23:55:46;;;;;;;2.17;1.40;;;;;;;18.60;61.54;100988.75;20814748;28;20060;-61
